Rio Tercero, Argentina
Current Conditions -  °F | °C
As of 6:00 AM on Thursday 23 Oct 2014 (Local Time) from SACO Reporting Station
Clear Clear  
Wind Chill: 61°   Ceiling: Unl
Heat Index: 61°   Visibility: 6mi
Dew Point: 50°   Wind: 6mph
Humidity: 68%   Direction: 320°NW
Pressure: 30.03"   Gusts: NA
Location:  32.18°S, 64.12°W
Report Text: SACO 230900Z 32005KT CAVOK 16/10 Q1017
Loading
Personal Weather Stations






























Interactive Weather Map New forecast layout! Learn more

10-Day Weather Forecast

Advertisements
Track Severe Weather on mobile